TFM - Tactical Decision Aid (Experimental) INFO Settings
ID: Runway Winds: CIG/VIS Threshold: METAR Board: Map:

Katl - Atlanta-Hartsfield Jackson Intl

Updated at: 2257 UTC 29 May 2016
Latest TAF at: 2210 UTC 29 May 2016

TAF Board

Time2252Z29/23Z30/00Z30/01Z30/02Z30/03Z30/04Z30/05Z30/06Z30/07Z30/08Z30/09Z30/10Z30/11Z
TypeOBSPRVLPRVLPRVLPRVLPRVLPRVLPRVLPRVLPRVLPRVLPRVLPRVLPRVL
VIS10>6>6>6>6>6>6>6>6>6>6>6>6>6
CIG--100------------------------
CoverSCTBKNFEWFEWFEWFEWFEWFEWFEWFEWSKCSKCSKCSKC
FltCatVFRVFRVFRVFRVFRVFRVFRVFRVFRVFRVFRVFRVFRVFR
WX----------------------------
WDir330604040404040404040320320320320
WSpd1010444444443333
WGst----------------------------
TAF
KATL 292210Z 2922/3024 34010KT P6SM SCT060 BKN150
  FM292300 06010KT P6SM SCT070 BKN100
  FM300000 04004KT P6SM FEW060
  FM300800 32003KT P6SM SKC
  FM301600 31009KT P6SM FEW040


METAR
KATL 292252Z 33010KT 10SM FEW065 SCT200 SCT250 31/14 A3002 RMK AO2 SLP156 CB DSNT NE T03110144
KATL 292152Z 33007KT 10SM FEW070 FEW200 SCT250 32/14 A3003 RMK AO2 SLP159 CB DSNT NE MDT CU NE-SE T03170139

TAF/METAR Board Legend

Potential Impact
  None Marginal Slight Moderate High
Visibility (sm) > ≤X≤ <
Ceiling (100 ft) > ≤X≤ <
Wind Speed (kt) <10 10≤X<20 20≤X<30 ≥30
Wind Gust (kt) <15 15≤X<25 25≤X<35 ≥35
Weather No Wx Reported VCTS -TS,-FZRA TS,FZRA +TS,+FZRA